createdAt,value
2017-08-16T00:00:13.558Z,2.53
2017-08-16T00:02:41.001Z,2.90
2017-08-16T00:05:08.470Z,2.50
2017-08-16T00:07:35.946Z,2.53
2017-08-16T00:10:03.400Z,2.40
2017-08-16T00:12:30.861Z,2.70
2017-08-16T00:14:58.314Z,2.10
2017-08-16T00:17:25.768Z,2.20
2017-08-16T00:19:53.238Z,2.50
2017-08-16T00:22:20.697Z,2.23
2017-08-16T00:24:48.165Z,2.77
2017-08-16T00:27:15.635Z,2.27
2017-08-16T00:29:43.101Z,2.43
2017-08-16T00:32:10.568Z,3.30
2017-08-16T00:34:38.026Z,2.37
2017-08-16T00:37:05.499Z,2.80
2017-08-16T00:39:32.954Z,2.30
2017-08-16T00:42:00.400Z,2.20
2017-08-16T00:44:27.861Z,2.40
2017-08-16T00:46:55.315Z,2.43
2017-08-16T00:49:22.788Z,2.40
2017-08-16T00:51:50.222Z,2.33
2017-08-16T00:54:17.683Z,2.30
2017-08-16T00:56:45.150Z,2.60
2017-08-16T00:59:12.601Z,2.30
2017-08-16T01:01:40.820Z,2.30
2017-08-16T01:04:08.288Z,3.07
2017-08-16T01:06:35.757Z,2.50
2017-08-16T01:09:03.205Z,2.43
2017-08-16T01:11:30.671Z,2.23
2017-08-16T01:13:58.117Z,2.43
2017-08-16T01:16:25.569Z,2.60
2017-08-16T01:18:53.020Z,2.40
2017-08-16T01:21:20.487Z,2.20
2017-08-16T01:23:47.950Z,2.10
2017-08-16T01:34:47.264Z,2.60
2017-08-16T01:37:14.710Z,2.20
2017-08-16T01:39:42.945Z,2.40
2017-08-16T01:42:10.394Z,2.23
2017-08-16T01:44:37.851Z,2.57
2017-08-16T01:47:05.317Z,3.20
2017-08-16T01:49:32.762Z,2.00
2017-08-16T01:52:00.218Z,2.70
2017-08-16T01:54:27.685Z,2.33
2017-08-16T01:56:55.243Z,2.17
2017-08-16T01:59:23.071Z,2.17
2017-08-16T02:01:50.513Z,2.80
2017-08-16T02:04:17.978Z,2.47
2017-08-16T02:06:45.442Z,2.23
2017-08-16T02:09:12.898Z,2.53
2017-08-16T02:11:41.130Z,2.17
2017-08-16T02:14:08.586Z,2.60
2017-08-16T02:16:36.042Z,2.10
2017-08-16T02:19:03.508Z,3.70
2017-08-16T02:21:30.962Z,2.13
2017-08-16T02:23:58.414Z,2.43
2017-08-16T02:26:25.862Z,2.00
2017-08-16T02:28:53.326Z,1.93
2017-08-16T02:31:20.766Z,2.23
2017-08-16T02:33:48.221Z,2.43
2017-08-16T02:36:15.688Z,2.27
2017-08-16T02:38:43.172Z,1.90
2017-08-16T02:41:10.641Z,3.00
2017-08-16T02:43:38.085Z,2.23
2017-08-16T02:46:05.546Z,2.30
2017-08-16T02:48:33.002Z,2.33
2017-08-16T02:51:00.446Z,2.60
2017-08-16T02:53:27.899Z,2.03
2017-08-16T02:55:55.356Z,2.37
2017-08-16T02:58:22.833Z,1.83
2017-08-16T03:00:50.308Z,2.20
2017-08-16T03:03:17.750Z,2.13
2017-08-16T03:05:45.225Z,2.10
2017-08-16T03:08:12.685Z,2.10
2017-08-16T03:10:40.134Z,1.97
2017-08-16T03:13:07.582Z,1.90
2017-08-16T03:15:35.036Z,2.20
2017-08-16T03:18:02.479Z,1.70
2017-08-16T03:20:29.980Z,2.10
2017-08-16T03:22:57.405Z,1.90
2017-08-16T03:25:24.855Z,2.00
2017-08-16T03:27:52.324Z,2.10
2017-08-16T03:30:19.778Z,2.23
2017-08-16T03:32:47.227Z,2.07
2017-08-16T03:35:14.674Z,1.93
2017-08-16T03:37:42.126Z,1.73
2017-08-16T03:40:09.590Z,1.90
2017-08-16T03:42:37.046Z,2.10
2017-08-16T03:45:04.494Z,2.10
2017-08-16T03:47:31.945Z,2.00
2017-08-16T03:49:59.393Z,1.90
2017-08-16T03:52:26.850Z,2.30
2017-08-16T03:54:54.319Z,2.43
2017-08-16T03:57:21.790Z,1.90
2017-08-16T03:59:49.234Z,2.03
2017-08-16T04:02:16.693Z,2.10
2017-08-16T04:04:44.181Z,2.40
2017-08-16T04:07:11.638Z,2.17
2017-08-16T04:09:39.102Z,2.33
2017-08-16T04:12:06.569Z,2.03
2017-08-16T04:14:34.022Z,2.17
2017-08-16T04:17:01.461Z,4.47
2017-08-16T04:19:28.925Z,2.07
2017-08-16T04:21:56.376Z,2.23
2017-08-16T04:24:23.827Z,1.90
2017-08-16T04:26:51.280Z,1.80
2017-08-16T04:29:18.730Z,2.10
2017-08-16T04:31:46.201Z,2.50
2017-08-16T04:34:13.669Z,2.23
2017-08-16T04:36:41.113Z,1.90
2017-08-16T04:39:08.604Z,1.87
2017-08-16T04:41:36.046Z,2.43
2017-08-16T04:44:03.493Z,2.07
2017-08-16T04:46:30.949Z,2.13
2017-08-16T04:48:58.419Z,2.30
2017-08-16T04:51:25.870Z,2.30
2017-08-16T04:53:53.347Z,2.00
2017-08-16T04:56:20.801Z,2.13
2017-08-16T04:58:48.254Z,1.93
2017-08-16T05:01:15.725Z,2.40
2017-08-16T05:03:43.189Z,1.87
2017-08-16T05:06:10.639Z,2.00
2017-08-16T05:08:38.085Z,3.23
2017-08-16T05:11:05.537Z,2.60
2017-08-16T05:13:32.986Z,1.90
2017-08-16T05:16:00.425Z,2.10
2017-08-16T05:18:27.887Z,2.10
2017-08-16T05:20:55.334Z,2.40
2017-08-16T05:23:22.808Z,2.23
2017-08-16T05:25:50.249Z,2.20
2017-08-16T05:28:17.706Z,2.83
2017-08-16T05:30:45.159Z,2.30
2017-08-16T05:33:12.617Z,2.10
2017-08-16T05:35:40.546Z,2.17
2017-08-16T05:38:08.017Z,2.43
2017-08-16T05:40:35.478Z,2.10
2017-08-16T05:43:02.929Z,3.50
2017-08-16T05:45:30.365Z,2.17
2017-08-16T05:47:57.855Z,2.60
2017-08-16T05:50:25.319Z,2.13
2017-08-16T05:52:52.774Z,2.07
2017-08-16T05:55:20.225Z,2.33
2017-08-16T05:57:47.675Z,4.60
2017-08-16T06:00:15.131Z,2.23
2017-08-16T06:02:42.602Z,2.63
2017-08-16T06:05:10.054Z,2.43
2017-08-16T06:07:37.524Z,2.40
2017-08-16T06:10:05.010Z,2.30
2017-08-16T06:12:32.464Z,2.80
2017-08-16T06:14:59.918Z,2.40
2017-08-16T06:17:27.367Z,2.40
2017-08-16T06:19:54.853Z,2.63
2017-08-16T06:22:22.284Z,2.33
2017-08-16T06:24:49.760Z,2.30
2017-08-16T06:27:17.210Z,2.63
2017-08-16T06:29:44.711Z,2.10
2017-08-16T06:32:12.157Z,2.30
2017-08-16T06:34:39.606Z,2.13
2017-08-16T06:37:07.052Z,2.33
2017-08-16T06:39:34.501Z,2.30
2017-08-16T06:42:01.957Z,2.10
2017-08-16T06:44:29.427Z,2.60
2017-08-16T06:46:56.962Z,2.37
2017-08-16T06:49:25.203Z,2.07
2017-08-16T06:51:52.673Z,2.40
2017-08-16T06:54:20.164Z,2.30
2017-08-16T06:56:47.637Z,1.90
2017-08-16T06:59:15.100Z,2.37
2017-08-16T07:01:42.542Z,2.20
2017-08-16T07:04:10.001Z,2.23
2017-08-16T07:06:37.450Z,3.13
2017-08-16T07:09:04.913Z,2.20
2017-08-16T07:11:32.373Z,2.40
2017-08-16T07:13:59.830Z,2.10
2017-08-16T07:16:27.280Z,2.10
2017-08-16T07:18:54.761Z,2.13
2017-08-16T07:21:22.207Z,2.10
2017-08-16T07:23:49.658Z,2.10
2017-08-16T07:26:17.113Z,1.93
2017-08-16T07:28:44.565Z,2.40
2017-08-16T07:31:12.014Z,2.03
2017-08-16T07:33:39.474Z,1.80
2017-08-16T07:36:06.942Z,2.17
2017-08-16T07:38:34.402Z,2.40
2017-08-16T07:41:01.858Z,2.20
2017-08-16T07:43:29.307Z,2.10
2017-08-16T07:45:56.765Z,2.40
2017-08-16T07:48:24.232Z,4.63
2017-08-16T07:50:51.701Z,1.90
2017-08-16T07:53:19.137Z,1.90
2017-08-16T07:55:46.610Z,1.90
2017-08-16T07:58:14.063Z,1.93
2017-08-16T08:00:41.534Z,1.90
2017-08-16T08:03:09.029Z,1.93
2017-08-16T08:05:36.497Z,1.80
2017-08-16T08:08:03.950Z,2.30
2017-08-16T08:10:31.403Z,1.90
2017-08-16T08:12:58.866Z,2.10
2017-08-16T08:15:26.335Z,1.80
2017-08-16T08:17:53.783Z,1.80
2017-08-16T08:20:21.231Z,1.57
2017-08-16T08:22:48.704Z,1.93
2017-08-16T08:25:16.167Z,1.67
2017-08-16T08:27:43.656Z,1.90
2017-08-16T08:30:11.129Z,1.50
2017-08-16T08:32:38.581Z,2.00
2017-08-16T08:35:06.057Z,1.80
2017-08-16T08:37:33.497Z,1.40
2017-08-16T08:40:00.954Z,5.20
2017-08-16T08:42:28.398Z,1.50
2017-08-16T08:44:55.858Z,1.60
2017-08-16T08:47:23.303Z,1.80
2017-08-16T08:49:50.749Z,1.70
2017-08-16T08:52:18.193Z,1.67
2017-08-16T08:54:45.666Z,1.47
2017-08-16T08:57:13.110Z,1.83
2017-08-16T08:59:40.594Z,2.53
2017-08-16T09:02:08.085Z,1.50
2017-08-16T09:04:35.547Z,1.40
2017-08-16T09:07:03.003Z,1.40
2017-08-16T09:09:30.521Z,1.60
2017-08-16T09:11:57.995Z,1.43
2017-08-16T09:14:25.458Z,1.87
2017-08-16T09:16:52.909Z,1.20
2017-08-16T09:19:20.357Z,1.40
2017-08-16T09:21:47.825Z,1.70
2017-08-16T09:24:15.277Z,1.80
2017-08-16T09:26:42.743Z,1.60
2017-08-16T09:29:10.200Z,1.57
2017-08-16T09:31:38.441Z,1.57
2017-08-16T09:34:05.882Z,1.70
2017-08-16T09:36:33.354Z,1.67
2017-08-16T09:39:00.803Z,1.30
2017-08-16T09:41:28.286Z,1.43
2017-08-16T09:43:55.741Z,1.50
2017-08-16T09:46:23.205Z,1.20
2017-08-16T09:48:50.662Z,1.40
2017-08-16T09:51:18.137Z,1.30
2017-08-16T09:53:45.607Z,1.30
2017-08-16T09:56:13.049Z,1.30
2017-08-16T09:58:40.525Z,1.33
2017-08-16T10:01:08.017Z,1.40
2017-08-16T10:03:35.469Z,1.07
2017-08-16T10:06:02.928Z,1.10
2017-08-16T10:08:30.378Z,1.10
2017-08-16T10:10:57.835Z,1.10
2017-08-16T10:13:25.301Z,2.10
2017-08-16T10:15:52.769Z,1.27
2017-08-16T10:18:20.226Z,1.20
2017-08-16T10:20:47.678Z,1.40
2017-08-16T10:23:15.169Z,1.17
2017-08-16T10:25:42.629Z,1.20
2017-08-16T10:28:10.110Z,1.20
2017-08-16T10:30:37.587Z,1.00
2017-08-16T10:33:05.046Z,1.10
2017-08-16T10:35:32.507Z,1.30
2017-08-16T10:37:59.974Z,1.17
2017-08-16T10:40:27.434Z,1.10
2017-08-16T10:42:54.894Z,0.97
2017-08-16T10:45:22.358Z,4.57
2017-08-16T10:47:49.864Z,1.00
2017-08-16T10:50:17.350Z,2.20
2017-08-16T10:52:44.841Z,1.00
2017-08-16T10:55:12.289Z,1.27
2017-08-16T10:57:39.746Z,1.10
2017-08-16T11:00:07.209Z,1.20
2017-08-16T11:02:34.675Z,1.60
2017-08-16T11:05:02.123Z,0.90
2017-08-16T11:07:29.593Z,1.00
2017-08-16T11:09:57.058Z,1.10
2017-08-16T11:12:24.516Z,1.00
2017-08-16T11:14:51.984Z,0.90
2017-08-16T11:17:19.440Z,1.00
2017-08-16T11:19:46.909Z,0.80
2017-08-16T11:22:14.354Z,1.03
2017-08-16T11:24:41.817Z,0.90
2017-08-16T11:27:09.273Z,1.27
2017-08-16T11:29:36.746Z,0.93
2017-08-16T11:32:04.203Z,0.87
2017-08-16T11:34:31.665Z,0.80
2017-08-16T11:36:59.124Z,0.93
2017-08-16T11:39:26.583Z,0.80
2017-08-16T11:41:54.025Z,0.90
2017-08-16T11:44:21.469Z,1.03
2017-08-16T11:46:48.929Z,0.90
2017-08-16T11:49:16.390Z,0.80
2017-08-16T11:51:43.842Z,0.83
2017-08-16T11:54:11.290Z,0.80
2017-08-16T11:56:38.750Z,0.70
2017-08-16T11:59:06.211Z,0.70
2017-08-16T12:01:33.689Z,0.93
2017-08-16T12:04:01.152Z,0.90
2017-08-16T12:06:28.633Z,0.90
2017-08-16T12:08:56.078Z,1.73
2017-08-16T12:11:23.542Z,0.90
2017-08-16T12:13:50.987Z,1.00
2017-08-16T12:16:18.444Z,1.00
2017-08-16T12:18:45.891Z,0.80
2017-08-16T12:21:13.348Z,0.90
2017-08-16T12:23:40.790Z,0.70
2017-08-16T12:26:08.249Z,1.40
2017-08-16T12:28:35.741Z,0.80
2017-08-16T12:31:03.197Z,0.87
2017-08-16T12:33:30.631Z,0.80
2017-08-16T12:35:58.093Z,0.80
2017-08-16T12:38:25.543Z,0.80
2017-08-16T12:40:53.013Z,0.70
2017-08-16T12:43:20.484Z,0.93
2017-08-16T12:45:47.948Z,0.80
2017-08-16T12:48:15.425Z,0.90
2017-08-16T12:50:42.870Z,0.90
2017-08-16T12:53:10.347Z,0.80
2017-08-16T12:55:37.784Z,0.80
2017-08-16T12:58:05.242Z,1.23
2017-08-16T13:00:32.695Z,0.80
2017-08-16T13:03:00.151Z,0.90
2017-08-16T13:05:27.589Z,0.77
2017-08-16T13:07:55.055Z,0.90
2017-08-16T13:10:22.510Z,0.80
2017-08-16T13:12:49.990Z,0.70
2017-08-16T13:15:17.435Z,0.70
2017-08-16T13:17:44.922Z,0.80
2017-08-16T13:20:12.401Z,0.80
2017-08-16T13:22:39.867Z,0.90
2017-08-16T13:25:07.336Z,0.70
2017-08-16T13:27:34.811Z,0.70
2017-08-16T13:30:02.258Z,0.90
2017-08-16T13:32:29.700Z,0.70
2017-08-16T13:34:57.158Z,0.70
2017-08-16T13:37:24.602Z,0.80
2017-08-16T13:39:52.066Z,0.73
2017-08-16T13:42:19.538Z,0.80
2017-08-16T13:44:46.986Z,0.80
2017-08-16T13:47:14.435Z,0.80
2017-08-16T13:49:41.901Z,0.80
2017-08-16T13:52:09.360Z,0.73
2017-08-16T13:54:36.806Z,0.80
2017-08-16T13:57:04.278Z,0.80
2017-08-16T13:59:31.730Z,0.80
2017-08-16T14:01:59.200Z,0.70
2017-08-16T14:04:26.650Z,0.70
2017-08-16T14:06:54.106Z,0.90
2017-08-16T14:09:21.561Z,1.47
2017-08-16T14:11:49.013Z,0.70
2017-08-16T14:14:16.478Z,0.83
2017-08-16T14:16:43.961Z,0.70
2017-08-16T14:19:11.414Z,0.63
2017-08-16T14:21:38.888Z,0.70
2017-08-16T14:24:06.371Z,0.70
2017-08-16T14:26:33.838Z,0.80
2017-08-16T14:29:01.301Z,1.00
2017-08-16T14:31:28.769Z,0.90
2017-08-16T14:33:56.246Z,0.90
2017-08-16T14:36:23.701Z,0.87
2017-08-16T14:38:51.155Z,1.00
2017-08-16T14:41:18.594Z,1.00
2017-08-16T14:43:46.049Z,0.80
2017-08-16T14:46:14.273Z,0.80
2017-08-16T14:48:41.743Z,0.80
2017-08-16T14:51:09.209Z,1.03
2017-08-16T14:53:36.662Z,0.90
2017-08-16T14:56:04.137Z,0.80
2017-08-16T14:58:31.594Z,1.00
2017-08-16T15:00:59.050Z,0.90
2017-08-16T15:03:26.510Z,1.23
2017-08-16T15:05:53.966Z,1.00
2017-08-16T15:08:21.436Z,0.90
2017-08-16T15:10:48.890Z,0.90
2017-08-16T15:13:16.337Z,0.90
2017-08-16T15:15:43.815Z,1.00
2017-08-16T15:18:11.278Z,1.00
2017-08-16T15:20:38.726Z,0.80
2017-08-16T15:23:06.174Z,1.00
2017-08-16T15:25:33.630Z,0.90
2017-08-16T15:28:01.097Z,0.93
2017-08-16T15:30:28.550Z,1.07
2017-08-16T15:32:57.983Z,1.00
2017-08-16T15:35:25.514Z,0.83
2017-08-16T15:37:52.971Z,1.03
2017-08-16T15:40:20.429Z,1.00
2017-08-16T15:42:47.882Z,1.27
2017-08-16T15:45:15.357Z,0.80
2017-08-16T15:47:42.814Z,0.90
2017-08-16T15:50:10.260Z,1.53
2017-08-16T15:52:37.703Z,1.10
2017-08-16T15:55:05.159Z,1.00
2017-08-16T15:57:32.610Z,1.20
2017-08-16T16:00:00.068Z,0.90
2017-08-16T16:02:27.523Z,0.93
2017-08-16T16:04:54.993Z,1.00
2017-08-16T16:07:22.453Z,0.93
2017-08-16T16:09:49.914Z,1.00
2017-08-16T16:12:17.371Z,0.90
2017-08-16T16:14:45.100Z,1.13
2017-08-16T16:17:12.582Z,1.03
2017-08-16T16:19:40.032Z,1.00
2017-08-16T16:22:07.487Z,1.37
2017-08-16T16:24:34.938Z,1.20
2017-08-16T16:27:02.402Z,1.00
2017-08-16T16:29:29.846Z,1.00
2017-08-16T16:31:57.348Z,1.20
2017-08-16T16:34:24.817Z,1.60
2017-08-16T16:36:52.278Z,1.30
2017-08-16T16:39:19.745Z,1.30
2017-08-16T16:41:47.230Z,1.47
2017-08-16T16:44:14.678Z,1.20
2017-08-16T16:46:42.151Z,1.17
2017-08-16T16:49:09.615Z,1.10
2017-08-16T16:51:37.093Z,1.00
2017-08-16T16:54:04.575Z,1.10
2017-08-16T16:56:32.148Z,1.00
2017-08-16T16:58:59.602Z,1.10
2017-08-16T17:01:27.045Z,1.30
2017-08-16T17:03:54.540Z,1.10
2017-08-16T17:06:21.994Z,1.07
2017-08-16T17:08:49.449Z,1.00
2017-08-16T17:11:16.911Z,1.20
2017-08-16T17:13:44.364Z,1.17
2017-08-16T17:16:11.818Z,1.20
2017-08-16T17:18:39.297Z,3.00
2017-08-16T17:21:06.767Z,1.10
2017-08-16T17:23:34.256Z,1.23
2017-08-16T17:26:01.710Z,1.10
2017-08-16T17:28:29.937Z,1.20
2017-08-16T17:30:57.454Z,1.20
2017-08-16T17:33:25.665Z,1.00
2017-08-16T17:35:53.119Z,1.20
2017-08-16T17:38:20.573Z,1.10
2017-08-16T17:40:48.042Z,1.23
2017-08-16T17:43:15.488Z,1.10
2017-08-16T17:45:42.988Z,1.40
2017-08-16T17:48:10.446Z,1.30
2017-08-16T17:50:37.933Z,1.00
2017-08-16T17:53:05.384Z,1.33
2017-08-16T17:55:33.616Z,1.30
2017-08-16T17:58:01.083Z,1.17
2017-08-16T18:00:28.549Z,1.30
2017-08-16T18:02:56.004Z,1.23
2017-08-16T18:05:23.477Z,1.27
2017-08-16T18:07:50.941Z,1.40
2017-08-16T18:10:18.389Z,1.10
2017-08-16T18:12:46.612Z,1.00
2017-08-16T18:15:14.072Z,1.60
2017-08-16T18:17:41.531Z,1.33
2017-08-16T18:20:08.965Z,1.10
2017-08-16T18:22:36.418Z,1.53
2017-08-16T18:25:03.881Z,1.40
2017-08-16T18:27:31.342Z,1.40
2017-08-16T18:29:58.815Z,1.20
2017-08-16T18:32:26.309Z,1.50
2017-08-16T18:34:53.767Z,1.20
2017-08-16T18:37:21.221Z,1.10
2017-08-16T18:39:48.673Z,1.27
2017-08-16T18:42:16.158Z,1.13
2017-08-16T18:44:44.611Z,1.40
2017-08-16T18:47:12.138Z,1.33
2017-08-16T18:49:39.585Z,1.20
2017-08-16T18:52:07.057Z,1.40
2017-08-16T18:54:34.525Z,1.17
2017-08-16T18:57:01.970Z,1.50
2017-08-16T18:59:29.420Z,1.13
2017-08-16T19:01:56.887Z,1.30
2017-08-16T19:04:24.355Z,1.40
2017-08-16T19:06:51.799Z,1.67
2017-08-16T19:09:19.269Z,1.30
2017-08-16T19:11:46.711Z,1.30
2017-08-16T19:14:14.169Z,1.27
2017-08-16T19:16:41.637Z,1.50
2017-08-16T19:19:09.085Z,1.27
2017-08-16T19:21:36.542Z,1.40
2017-08-16T19:24:03.997Z,1.40
2017-08-16T19:26:31.451Z,1.27
2017-08-16T19:28:58.907Z,1.30
2017-08-16T19:31:26.450Z,1.37
2017-08-16T19:33:53.906Z,1.50
2017-08-16T19:36:21.349Z,1.57
2017-08-16T19:38:48.801Z,1.27
2017-08-16T19:41:16.261Z,1.23
2017-08-16T19:43:43.717Z,1.50
2017-08-16T19:46:11.200Z,1.50
2017-08-16T19:48:38.676Z,1.20
2017-08-16T19:51:06.121Z,1.50
2017-08-16T19:53:33.594Z,1.50
2017-08-16T19:56:01.069Z,1.33
2017-08-16T19:58:28.554Z,1.40
2017-08-16T20:00:55.995Z,1.33
2017-08-16T20:03:23.489Z,1.33
2017-08-16T20:05:50.941Z,1.30
2017-08-16T20:08:18.402Z,1.17
2017-08-16T20:10:45.880Z,1.23
2017-08-16T20:13:13.321Z,1.40
2017-08-16T20:15:40.771Z,1.40
2017-08-16T20:18:08.236Z,1.63
2017-08-16T20:20:35.691Z,1.30
2017-08-16T20:23:03.151Z,1.20
2017-08-16T20:25:30.619Z,1.33
2017-08-16T20:27:58.061Z,1.57
2017-08-16T20:30:25.533Z,1.40
2017-08-16T20:32:53.001Z,1.50
2017-08-16T20:35:20.454Z,1.50
2017-08-16T20:37:47.897Z,1.30
2017-08-16T20:40:15.365Z,1.50
2017-08-16T20:42:42.837Z,1.63
2017-08-16T20:45:10.299Z,3.73
2017-08-16T20:47:37.755Z,4.47
2017-08-16T20:50:05.245Z,5.57
2017-08-16T20:52:32.703Z,6.57
2017-08-16T20:55:00.158Z,7.90
2017-08-16T20:57:27.731Z,9.30
2017-08-16T20:59:55.254Z,10.50
2017-08-16T21:02:22.735Z,11.60
2017-08-16T21:04:50.194Z,14.37
2017-08-16T21:07:17.646Z,14.70
2017-08-16T21:09:45.123Z,13.30
2017-08-16T21:12:12.590Z,13.03
2017-08-16T21:14:40.083Z,17.73
2017-08-16T21:17:07.562Z,17.33
2017-08-16T21:19:35.016Z,20.33
2017-08-16T21:22:02.486Z,21.97
2017-08-16T21:24:29.965Z,22.93
2017-08-16T21:26:57.417Z,24.73
2017-08-16T21:29:24.867Z,25.10
2017-08-16T21:31:52.352Z,25.03
2017-08-16T21:34:19.825Z,25.53
2017-08-16T21:36:47.286Z,22.30
2017-08-16T21:39:14.762Z,24.70
2017-08-16T21:41:42.219Z,20.87
2017-08-16T21:44:09.709Z,21.13
2017-08-16T21:46:37.196Z,22.20
2017-08-16T21:49:04.701Z,21.13
2017-08-16T21:51:32.154Z,21.17
2017-08-16T21:53:59.649Z,21.40
2017-08-16T21:56:27.121Z,21.60
2017-08-16T21:58:54.592Z,20.97
2017-08-16T22:01:22.066Z,19.97
2017-08-16T22:03:49.527Z,19.30
2017-08-16T22:06:17.015Z,17.83
2017-08-16T22:08:44.500Z,17.20
2017-08-16T22:11:11.976Z,18.23
2017-08-16T22:13:39.433Z,17.00
2017-08-16T22:16:06.885Z,16.70
2017-08-16T22:18:34.352Z,17.30
2017-08-16T22:21:01.803Z,15.63
2017-08-16T22:23:29.292Z,16.43
2017-08-16T22:25:56.773Z,14.63
2017-08-16T22:28:24.257Z,15.33
2017-08-16T22:30:51.724Z,15.53
2017-08-16T22:33:19.203Z,12.23
2017-08-16T22:35:46.668Z,13.63
2017-08-16T22:38:14.128Z,12.43
2017-08-16T22:40:41.586Z,12.33
2017-08-16T22:43:09.043Z,12.10
2017-08-16T22:45:36.510Z,12.20
2017-08-16T22:48:03.981Z,10.97
2017-08-16T22:50:31.434Z,11.37
2017-08-16T22:52:58.894Z,13.07
2017-08-16T22:55:26.350Z,11.00
2017-08-16T22:57:53.821Z,11.00
2017-08-16T23:00:21.301Z,11.37
2017-08-16T23:02:48.755Z,10.83
2017-08-16T23:05:16.202Z,11.63
2017-08-16T23:07:43.659Z,9.77
2017-08-16T23:10:11.137Z,9.93
2017-08-16T23:12:38.595Z,9.47
2017-08-16T23:15:06.090Z,9.30
2017-08-16T23:17:33.542Z,9.03
2017-08-16T23:20:01.007Z,9.80
2017-08-16T23:22:28.467Z,8.60
2017-08-16T23:24:55.927Z,8.30
2017-08-16T23:27:23.390Z,8.67
2017-08-16T23:29:50.827Z,8.90
2017-08-16T23:32:18.283Z,8.70
2017-08-16T23:34:45.725Z,8.50
2017-08-16T23:37:13.191Z,7.50
2017-08-16T23:39:40.649Z,8.40
2017-08-16T23:42:08.116Z,7.67
2017-08-16T23:44:35.559Z,7.20
2017-08-16T23:47:03.032Z,7.40
2017-08-16T23:49:30.489Z,7.07
2017-08-16T23:51:57.943Z,7.00
2017-08-16T23:54:25.414Z,7.57
2017-08-16T23:56:52.897Z,6.60
2017-08-16T23:59:20.397Z,6.93
